Time;durP1;ratioP1;P1;durP2;ratioP2;P2;SDS_P1;SDS_P2;PMS_P1;PMS_P2;Temp;Humidity;BMP_temperature;BMP_pressure;BME280_temperature;BME280_humidity;BME280_pressure;Samples;Min_cycle;Max_cycle;Signal;HPM_P1;HPM_P2
2023/05/31 00:01:09;;;;;;;;;17.50;14.50;;;;;20.39;33.75;101576.09;4982023;28;45199;-58
2023/05/31 00:03:35;;;;;;;;;17.75;13.25;;;;;20.37;33.81;101585.09;4982354;28;45767;-58
2023/05/31 00:06:00;;;;;;;;;14.75;12.50;;;;;20.32;34.31;101571.94;4972195;28;45314;-58
2023/05/31 00:08:26;;;;;;;;;23.50;18.50;;;;;20.32;33.99;101587.09;4962936;28;45377;-58
2023/05/31 00:10:51;;;;;;;;;21.25;16.50;;;;;20.28;34.13;101581.88;4962972;28;46815;-58
2023/05/31 00:13:16;;;;;;;;;13.75;13.00;;;;;20.25;34.28;101589.13;4962876;28;46157;-58
2023/05/31 00:15:42;;;;;;;;;16.75;15.25;;;;;20.22;34.83;101586.59;4977815;28;45518;-58
2023/05/31 00:18:07;;;;;;;;;16.50;15.25;;;;;20.13;34.72;101580.72;4962227;28;59594;-58
2023/05/31 00:20:32;;;;;;;;;16.50;16.50;;;;;20.13;34.55;101580.72;4963111;28;45428;-57
2023/05/31 00:22:58;;;;;;;;;19.25;16.00;;;;;20.11;34.83;101579.03;4962944;28;45475;-58
2023/05/31 00:25:23;;;;;;;;;22.25;14.00;;;;;20.07;34.76;101577.44;4962599;28;51306;-58
2023/05/31 00:27:48;;;;;;;;;18.00;14.75;;;;;20.05;35.04;101582.84;4975324;28;50936;-59
2023/05/31 00:30:13;;;;;;;;;18.25;17.75;;;;;20.03;35.30;101574.03;4962907;28;47410;-58
2023/05/31 00:32:39;;;;;;;;;17.50;13.00;;;;;19.97;35.05;101568.94;4962613;28;45577;-58
2023/05/31 00:35:04;;;;;;;;;14.75;14.00;;;;;19.90;35.30;101554.09;4962634;28;45311;-58
2023/05/31 00:37:36;;;;;;;;;17.50;15.25;;;;;19.95;35.27;101573.47;4982057;28;45833;-58
2023/05/31 00:40:02;;;;;;;;;17.25;15.25;;;;;19.91;35.18;101577.19;4962476;28;45327;-58
2023/05/31 00:42:27;;;;;;;;;17.25;15.00;;;;;19.87;35.31;101578.25;4962536;28;45251;-58
2023/05/31 00:44:52;;;;;;;;;16.00;12.75;;;;;19.84;35.22;101568.56;4962517;28;45251;-58
2023/05/31 00:47:18;;;;;;;;;15.50;14.25;;;;;19.81;35.10;101574.84;4962003;28;45460;-58
2023/05/31 00:49:43;;;;;;;;;18.25;17.00;;;;;19.79;35.06;101574.03;4962622;28;45419;-58
2023/05/31 00:52:09;;;;;;;;;19.25;17.25;;;;;19.75;35.46;101560.91;4962472;28;45294;-57
2023/05/31 00:54:35;;;;;;;;;20.75;17.00;;;;;19.74;35.46;101565.34;4962569;28;45208;-57
2023/05/31 00:57:01;;;;;;;;;17.25;14.75;;;;;19.70;35.36;101563.75;4962041;28;45236;-58
2023/05/31 00:59:27;;;;;;;;;18.50;13.75;;;;;19.65;35.73;101558.59;4962474;28;45141;-57
2023/05/31 01:01:55;;;;;;;;;17.50;16.25;;;;;19.64;35.59;101566.66;4962036;28;45208;-57
2023/05/31 01:04:21;;;;;;;;;17.75;16.25;;;;;19.62;35.65;101561.41;4960956;28;45513;-57
2023/05/31 01:06:49;;;;;;;;;20.00;17.25;;;;;19.55;36.07;101561.69;4963943;28;46148;-57
2023/05/31 01:09:16;;;;;;;;;15.25;15.00;;;;;19.57;36.08;101555.38;4962241;28;45510;-58
2023/05/31 01:12:02;;;;;;;;;18.00;18.00;;;;;19.54;35.85;101555.47;4962158;28;45243;-57
2023/05/31 01:14:30;;;;;;;;;15.25;13.00;;;;;19.51;35.97;101544.06;4961884;28;45478;-57
2023/05/31 01:17:22;;;;;;;;;20.00;18.75;;;;;19.46;36.27;101550.44;4961373;28;46293;-57
2023/05/31 01:19:53;;;;;;;;;20.25;17.25;;;;;19.45;35.86;101555.84;4961790;28;45226;-57
2023/05/31 01:22:23;;;;;;;;;13.75;12.50;;;;;19.43;36.10;101563.03;4977074;28;45358;-57
2023/05/31 01:25:14;;;;;;;;;18.00;16.25;;;;;19.40;36.11;101556.00;4961686;28;45242;-57
2023/05/31 01:27:41;;;;;;;;;18.00;15.50;;;;;19.38;36.04;101562.34;4974427;28;45444;-57
2023/05/31 01:30:09;;;;;;;;;18.00;15.00;;;;;19.35;36.06;101559.81;4961932;28;45242;-57
2023/05/31 01:32:37;;;;;;;;;16.50;13.75;;;;;19.31;36.52;101551.91;4961930;28;45303;-57
2023/05/31 01:35:03;;;;;;;;;18.50;18.50;;;;;19.28;36.25;101551.16;4961698;28;45603;-57
2023/05/31 01:37:28;;;;;;;;;19.50;16.50;;;;;19.27;36.27;101546.75;4981887;28;46552;-57
2023/05/31 01:39:53;;;;;;;;;21.50;17.75;;;;;19.25;36.44;101546.81;4961616;28;45362;-57
2023/05/31 01:42:21;;;;;;;;;19.00;17.00;;;;;19.21;36.70;101547.84;4976766;28;45441;-57
2023/05/31 01:44:48;;;;;;;;;16.75;13.75;;;;;19.18;36.47;101542.63;4961612;28;45584;-58
2023/05/31 01:47:15;;;;;;;;;16.25;14.25;;;;;19.17;36.64;101546.25;4961187;28;46489;-58
2023/05/31 01:49:41;;;;;;;;;19.00;17.75;;;;;19.17;36.64;101543.59;4961456;28;45295;-57
2023/05/31 01:52:12;;;;;;;;;15.50;13.75;;;;;19.12;36.90;101540.22;4961541;28;45317;-57
2023/05/31 01:54:37;;;;;;;;;18.75;18.00;;;;;19.11;36.49;101538.47;4961601;28;45251;-57
2023/05/31 01:57:05;;;;;;;;;16.00;15.50;;;;;19.09;36.92;101532.34;4961147;28;45228;-57
2023/05/31 01:59:32;;;;;;;;;16.25;15.00;;;;;19.07;36.74;101539.50;4976491;28;45481;-57
2023/05/31 02:01:58;;;;;;;;;21.50;18.75;;;;;19.05;37.14;101544.88;4961286;28;45350;-57
2023/05/31 02:04:23;;;;;;;;;16.25;15.25;;;;;19.02;37.18;101539.69;4961415;28;45491;-58
2023/05/31 02:06:48;;;;;;;;;20.00;18.50;;;;;19.02;36.99;101542.34;4963152;28;46290;-57
2023/05/31 02:09:14;;;;;;;;;20.50;18.50;;;;;19.00;36.81;101536.22;4961331;28;45551;-58
2023/05/31 02:11:39;;;;;;;;;16.75;15.50;;;;;19.00;37.10;101533.53;4960169;28;45391;-57
2023/05/31 02:14:05;;;;;;;;;18.75;15.75;;;;;18.96;36.97;101532.78;4961283;28;45580;-57
2023/05/31 02:16:30;;;;;;;;;17.75;14.75;;;;;18.95;37.28;101538.16;4960698;28;45275;-57
2023/05/31 02:18:56;;;;;;;;;21.25;16.75;;;;;18.93;37.23;101534.69;4961173;28;45302;-57
2023/05/31 02:21:22;;;;;;;;;15.75;14.75;;;;;18.90;37.03;101541.00;4961273;28;45306;-57
2023/05/31 02:23:47;;;;;;;;;23.25;19.00;;;;;18.89;37.33;101531.22;4961167;28;45176;-57
2023/05/31 02:26:12;;;;;;;;;18.25;16.00;;;;;18.88;37.04;101528.63;4962478;28;46255;-57
2023/05/31 02:28:38;;;;;;;;;19.00;16.75;;;;;18.86;37.54;101535.81;4970453;28;46137;-57
2023/05/31 02:31:03;;;;;;;;;19.75;14.25;;;;;18.83;37.55;101524.34;4960747;28;45244;-58
2023/05/31 02:33:29;;;;;;;;;13.50;12.75;;;;;18.82;37.58;101525.28;4960736;28;45232;-58
2023/05/31 02:35:56;;;;;;;;;19.75;16.50;;;;;18.79;37.42;101521.84;4960889;28;45195;-57
2023/05/31 02:38:22;;;;;;;;;17.25;17.25;;;;;18.76;37.41;101517.50;4980841;28;45273;-57
2023/05/31 02:40:47;;;;;;;;;20.25;16.50;;;;;18.74;37.67;101519.38;4959737;28;45408;-58
2023/05/31 02:43:13;;;;;;;;;20.00;17.00;;;;;18.72;37.52;101525.69;4960738;28;45373;-58
2023/05/31 02:45:38;;;;;;;;;20.00;17.25;;;;;18.67;37.63;101524.03;4960692;28;45299;-58
2023/05/31 02:48:05;;;;;;;;;17.25;16.25;;;;;18.66;37.72;101526.75;4960676;28;45331;-57
2023/05/31 02:50:32;;;;;;;;;20.75;16.75;;;;;18.63;37.74;101525.06;4960863;28;45251;-58
2023/05/31 02:52:57;;;;;;;;;21.00;20.75;;;;;18.60;37.89;101518.97;4960724;28;45255;-57
2023/05/31 02:55:22;;;;;;;;;18.00;17.50;;;;;18.59;37.80;101523.44;4960327;28;46312;-57
2023/05/31 02:57:48;;;;;;;;;17.75;17.50;;;;;18.57;37.94;101517.28;4960739;28;45248;-58
2023/05/31 03:00:14;;;;;;;;;23.25;17.75;;;;;18.55;38.00;101518.28;4960903;28;45490;-57
2023/05/31 03:02:40;;;;;;;;;18.75;15.50;;;;;18.52;38.04;101519.25;4960474;28;45164;-57
2023/05/31 03:05:08;;;;;;;;;16.25;15.25;;;;;18.48;38.18;101518.50;4963277;28;46783;-57
2023/05/31 03:07:34;;;;;;;;;17.50;15.50;;;;;18.47;38.28;101515.88;4975426;28;45458;-58
2023/05/31 03:09:59;;;;;;;;;17.75;17.75;;;;;18.44;38.14;101515.97;4975562;28;45453;-58
2023/05/31 03:12:25;;;;;;;;;22.75;17.25;;;;;18.40;38.33;101509.94;4960932;28;45298;-58
2023/05/31 03:14:50;;;;;;;;;20.00;16.50;;;;;18.41;38.17;101508.13;4960342;28;46431;-58
2023/05/31 03:17:15;;;;;;;;;18.50;17.00;;;;;18.38;38.41;101506.44;4960299;28;45267;-57
2023/05/31 03:19:41;;;;;;;;;15.00;15.00;;;;;18.39;38.32;101510.84;4960359;28;45206;-58
2023/05/31 03:22:06;;;;;;;;;22.00;18.75;;;;;18.36;38.36;101508.25;4960390;28;45286;-58
2023/05/31 03:24:31;;;;;;;;;20.75;17.00;;;;;18.33;38.36;101498.59;4960381;28;46686;-57
2023/05/31 03:26:57;;;;;;;;;19.75;19.00;;;;;18.31;38.41;101508.44;4968357;28;45206;-58
2023/05/31 03:29:22;;;;;;;;;17.00;14.50;;;;;18.29;38.39;101502.31;4963797;28;45252;-57
2023/05/31 03:31:47;;;;;;;;;17.25;16.50;;;;;18.29;38.59;101517.41;4960228;28;45303;-58
2023/05/31 03:34:13;;;;;;;;;21.50;20.50;;;;;18.25;38.51;101511.31;4960080;28;45403;-57
2023/05/31 03:36:38;;;;;;;;;23.00;18.00;;;;;18.26;38.64;101506.84;4986496;28;46022;-58
2023/05/31 03:39:03;;;;;;;;;20.50;18.50;;;;;18.21;38.70;101507.00;4972717;28;45239;-57
2023/05/31 03:41:29;;;;;;;;;19.75;17.50;;;;;18.18;38.70;101502.66;4963497;28;45165;-57
2023/05/31 03:43:54;;;;;;;;;21.75;20.00;;;;;18.12;38.55;101494.88;4978386;28;46064;-58
2023/05/31 03:46:20;;;;;;;;;18.25;16.25;;;;;18.15;38.67;101501.88;4962061;28;46079;-57
2023/05/31 03:48:45;;;;;;;;;18.50;18.00;;;;;18.12;38.52;101500.19;4963545;28;45355;-58
2023/05/31 03:51:10;;;;;;;;;19.25;17.25;;;;;18.10;38.75;101507.38;4963324;28;45434;-57
2023/05/31 03:53:36;;;;;;;;;18.50;15.50;;;;;18.10;38.78;101506.50;4963155;28;46218;-57
2023/05/31 03:56:01;;;;;;;;;22.75;20.75;;;;;18.06;38.89;101511.03;4963264;28;45409;-57
2023/05/31 03:58:27;;;;;;;;;21.75;21.75;;;;;18.07;38.93;101518.09;4963305;28;45306;-57
2023/05/31 04:00:52;;;;;;;;;19.75;18.25;;;;;18.06;39.11;101520.81;4963315;28;45351;-58
2023/05/31 04:03:17;;;;;;;;;14.75;14.75;;;;;18.03;39.10;101517.34;4962792;28;45986;-58
2023/05/31 04:05:43;;;;;;;;;17.00;14.75;;;;;18.01;38.95;101519.19;4965316;28;45432;-58
2023/05/31 04:08:08;;;;;;;;;19.50;17.00;;;;;18.00;39.03;101521.91;4963232;28;45315;-58
2023/05/31 04:10:34;;;;;;;;;19.25;16.25;;;;;17.97;39.13;101520.19;4963000;28;45333;-58
2023/05/31 04:12:59;;;;;;;;;20.75;16.25;;;;;17.98;39.12;101529.06;4961609;28;47159;-57
2023/05/31 04:15:25;;;;;;;;;23.00;21.00;;;;;17.96;39.24;101541.53;4962930;28;45310;-58
2023/05/31 04:17:51;;;;;;;;;17.25;16.00;;;;;17.95;39.31;101534.47;4962955;28;45248;-58
2023/05/31 04:20:17;;;;;;;;;26.50;24.25;;;;;17.93;39.32;101538.94;4963044;28;45140;-58
2023/05/31 04:22:42;;;;;;;;;24.25;19.25;;;;;17.90;39.35;101534.59;4962798;28;46101;-58
2023/05/31 04:25:09;;;;;;;;;22.00;19.75;;;;;17.89;39.37;101530.19;4962727;28;45240;-58
2023/05/31 04:27:38;;;;;;;;;21.00;19.50;;;;;17.87;39.49;101542.66;4974622;28;45483;-57
2023/05/31 04:30:05;;;;;;;;;17.50;16.50;;;;;17.87;39.52;101548.88;4962787;28;45318;-57
2023/05/31 04:32:34;;;;;;;;;22.25;18.25;;;;;17.85;39.39;101542.72;4962275;28;46528;-58
2023/05/31 04:35:03;;;;;;;;;21.50;19.00;;;;;17.82;39.62;101534.84;4962613;28;45238;-58
2023/05/31 04:37:29;;;;;;;;;17.75;16.50;;;;;17.83;39.32;101547.19;4983763;28;45364;-57
2023/05/31 04:39:58;;;;;;;;;28.50;20.50;;;;;17.82;39.55;101541.94;4962457;28;45449;-57
2023/05/31 04:42:25;;;;;;;;;25.25;21.50;;;;;17.82;39.71;101540.16;4962510;28;46122;-57
2023/05/31 04:44:57;;;;;;;;;17.25;15.75;;;;;17.75;39.72;101532.41;4962412;28;45397;-57
2023/05/31 04:47:27;;;;;;;;;20.00;16.25;;;;;17.79;39.75;101540.25;4960401;28;45465;-57
2023/05/31 04:49:54;;;;;;;;;22.75;20.25;;;;;17.79;39.81;101544.72;4961124;28;45763;-57
2023/05/31 04:52:20;;;;;;;;;24.00;20.50;;;;;17.77;39.87;101547.38;4962283;28;46241;-57
2023/05/31 04:54:45;;;;;;;;;22.50;18.50;;;;;17.76;39.69;101542.13;4962117;28;45262;-58
2023/05/31 04:57:10;;;;;;;;;24.25;18.50;;;;;17.75;39.78;101543.03;4962315;28;45324;-57
2023/05/31 04:59:36;;;;;;;;;19.00;17.50;;;;;17.74;39.85;101542.19;4962354;28;45457;-57
2023/05/31 05:02:02;;;;;;;;;21.75;19.00;;;;;17.73;40.13;101540.44;4962013;28;47065;-57
2023/05/31 05:04:27;;;;;;;;;20.00;17.25;;;;;17.73;39.98;101544.91;4962218;28;45433;-58
2023/05/31 05:06:52;;;;;;;;;20.75;15.75;;;;;17.72;39.90;101541.34;4964635;28;45307;-57
2023/05/31 05:09:18;;;;;;;;;24.75;20.25;;;;;17.73;39.80;101536.94;4960791;28;45180;-57
2023/05/31 05:11:43;;;;;;;;;22.75;18.50;;;;;17.71;40.06;101535.19;4961848;28;46170;-58
2023/05/31 05:14:09;;;;;;;;;18.25;16.50;;;;;17.71;40.06;101532.53;4962093;28;45311;-57
2023/05/31 05:16:34;;;;;;;;;22.25;19.50;;;;;17.71;39.82;101535.19;4961785;28;45240;-57
2023/05/31 05:19:00;;;;;;;;;22.50;17.25;;;;;17.69;40.15;101537.00;4962054;28;45227;-58
2023/05/31 05:21:25;;;;;;;;;24.00;18.50;;;;;17.69;39.93;101538.81;4961852;28;45960;-57
2023/05/31 05:23:50;;;;;;;;;20.25;16.00;;;;;17.69;40.30;101539.66;4961802;28;45469;-57
2023/05/31 05:26:16;;;;;;;;;16.00;16.00;;;;;17.69;40.28;101542.31;4964644;28;45449;-57
2023/05/31 05:28:41;;;;;;;;;16.50;16.50;;;;;17.69;40.25;101538.81;4970702;28;45454;-57
2023/05/31 05:31:07;;;;;;;;;18.75;17.50;;;;;17.69;40.19;101539.66;4961555;28;45442;-57
2023/05/31 05:33:33;;;;;;;;;20.75;19.75;;;;;17.68;40.23;101539.72;4961801;28;45259;-57
2023/05/31 05:35:58;;;;;;;;;24.50;21.00;;;;;17.69;40.25;101544.13;4961845;28;45244;-57
2023/05/31 05:38:23;;;;;;;;;18.25;17.75;;;;;17.61;40.38;101524.88;4982083;28;45537;-57
2023/05/31 05:40:49;;;;;;;;;17.00;16.25;;;;;17.67;40.22;101544.19;4961359;28;45410;-57
2023/05/31 05:43:14;;;;;;;;;22.00;18.75;;;;;17.63;40.57;101531.03;4963258;28;45444;-57
2023/05/31 05:45:40;;;;;;;;;21.25;17.00;;;;;17.73;40.06;101547.56;4978391;28;45726;-57
2023/05/31 05:48:05;;;;;;;;;21.25;19.00;;;;;17.71;40.46;101543.16;4979638;28;45493;-58
2023/05/31 05:50:30;;;;;;;;;22.25;17.50;;;;;17.73;40.88;101540.44;4980960;28;45233;-60
2023/05/31 05:52:56;;;;;;;;;19.00;17.00;;;;;17.73;40.68;101543.09;4980540;28;54987;-59
2023/05/31 05:55:21;;;;;;;;;20.25;18.75;;;;;17.72;40.51;101538.69;4973560;28;45155;-55
2023/05/31 05:57:46;;;;;;;;;23.25;17.75;;;;;17.73;40.70;101537.78;4969799;28;45312;-53
2023/05/31 06:00:14;;;;;;;;;17.25;16.00;;;;;17.76;40.68;101539.47;4969760;28;45341;-56
2023/05/31 06:02:40;;;;;;;;;18.00;16.00;;;;;17.76;40.86;101544.78;4967231;28;46592;-55
2023/05/31 06:05:06;;;;;;;;;16.50;16.50;;;;;17.76;40.83;101539.47;4975127;28;45365;-59
2023/05/31 06:07:31;;;;;;;;;16.00;13.50;;;;;17.79;41.11;101545.56;4974131;28;45421;-54
2023/05/31 06:09:57;;;;;;;;;15.00;14.75;;;;;17.81;41.01;101548.16;4972787;28;45956;-53
2023/05/31 06:12:23;;;;;;;;;16.50;16.50;;;;;17.84;40.94;101542.78;4970163;28;45362;-59
2023/05/31 06:14:48;;;;;;;;;21.25;17.25;;;;;17.85;41.00;101549.84;4976249;28;45338;-61
2023/05/31 06:17:14;;;;;;;;;24.00;17.25;;;;;17.87;41.21;101551.53;4972838;28;45551;-59
2023/05/31 06:19:39;;;;;;;;;17.00;14.75;;;;;17.87;40.70;101545.31;4971140;28;45529;-59
2023/05/31 06:22:05;;;;;;;;;15.75;15.50;;;;;17.89;41.20;101547.94;4974925;28;45356;-58
2023/05/31 06:24:30;;;;;;;;;15.50;14.50;;;;;17.95;41.12;101556.63;4973204;28;45207;-58
2023/05/31 06:26:56;;;;;;;;;17.50;15.25;;;;;17.96;41.23;101541.53;4968061;28;45357;-59
2023/05/31 06:29:21;;;;;;;;;15.75;15.00;;;;;17.98;41.02;101545.88;4978797;28;46135;-58
2023/05/31 06:31:46;;;;;;;;;15.25;13.50;;;;;17.99;41.15;101536.97;4978448;28;45355;-57
2023/05/31 06:34:12;;;;;;;;;18.75;17.25;;;;;18.03;41.30;101538.59;4978602;28;45374;-58
2023/05/31 06:36:37;;;;;;;;;18.00;18.00;;;;;18.08;41.16;101540.28;4976427;28;45294;-57
2023/05/31 06:39:02;;;;;;;;;15.75;13.75;;;;;18.11;41.08;101541.03;4977558;28;45328;-57
2023/05/31 06:41:29;;;;;;;;;14.50;14.25;;;;;18.14;40.98;101545.38;4972495;28;45168;-56
2023/05/31 06:43:55;;;;;;;;;15.25;12.50;;;;;18.16;40.86;101536.44;4978569;28;45318;-56
2023/05/31 06:46:20;;;;;;;;;15.00;14.00;;;;;18.19;41.17;101544.31;4977615;28;45693;-56
2023/05/31 06:48:45;;;;;;;;;16.50;14.75;;;;;18.25;41.12;101547.66;4979128;28;46506;-48
2023/05/31 06:51:11;;;;;;;;;13.75;10.75;;;;;18.28;41.23;101539.59;4979908;28;45324;-54
2023/05/31 06:53:36;;;;;;;;;15.00;13.50;;;;;18.31;41.10;101531.50;4979949;28;45339;-52
2023/05/31 06:56:02;;;;;;;;;12.50;10.75;;;;;18.35;40.83;101536.69;4991984;28;45829;-54
2023/05/31 06:58:33;;;;;;;;;14.00;12.00;;;;;18.40;41.08;101539.19;4979493;28;45412;-53
2023/05/31 07:00:58;;;;;;;;;18.00;16.75;;;;;18.45;40.99;101539.91;4979658;28;45306;-53
2023/05/31 07:03:24;;;;;;;;;16.75;12.25;;;;;18.51;41.24;101537.03;4978914;28;45219;-52
2023/05/31 07:05:50;;;;;;;;;12.50;11.00;;;;;18.57;41.27;101543.06;4979637;28;45251;-53
2023/05/31 07:08:15;;;;;;;;;12.50;12.50;;;;;18.60;40.92;101538.50;4978466;28;46996;-51
2023/05/31 07:10:41;;;;;;;;;15.75;14.75;;;;;18.63;41.20;101533.06;4960420;28;45454;-53
2023/05/31 07:13:07;;;;;;;;;19.25;17.25;;;;;18.68;41.19;101533.75;4977988;28;45434;-51
2023/05/31 07:15:33;;;;;;;;;30.00;26.75;;;;;18.72;41.23;101534.50;4982970;28;45338;-52
2023/05/31 07:17:58;;;;;;;;;19.75;17.50;;;;;18.75;40.84;101534.38;4982487;28;45580;-53
2023/05/31 07:20:24;;;;;;;;;15.25;14.25;;;;;18.78;41.22;101528.97;4983087;28;45345;-52
2023/05/31 07:22:50;;;;;;;;;16.00;12.50;;;;;18.84;40.64;101522.53;4976900;28;45384;-53
2023/05/31 07:25:16;;;;;;;;;13.75;11.25;;;;;18.89;41.15;101522.38;4982834;28;45410;-49
2023/05/31 07:27:41;;;;;;;;;14.75;12.50;;;;;18.92;41.16;101523.19;4976139;28;45584;-52
2023/05/31 07:30:07;;;;;;;;;14.00;11.50;;;;;18.95;41.12;101522.19;4982938;28;45179;-54
2023/05/31 07:32:33;;;;;;;;;12.50;11.00;;;;;19.00;40.96;101517.56;4982493;28;45306;-51
2023/05/31 07:34:58;;;;;;;;;18.75;15.25;;;;;19.04;41.05;101521.84;4983066;28;45227;-52
2023/05/31 07:37:23;;;;;;;;;12.00;10.50;;;;;19.05;40.89;101520.91;4972160;28;45496;-50
2023/05/31 07:39:49;;;;;;;;;12.75;11.25;;;;;19.07;40.88;101513.75;4997797;28;45330;-54
2023/05/31 07:42:14;;;;;;;;;13.75;11.00;;;;;19.14;41.05;101511.72;4982616;28;45346;-49
2023/05/31 07:44:40;;;;;;;;;10.75;9.50;;;;;19.20;40.78;101526.59;4982910;28;45227;-56
2023/05/31 07:47:05;;;;;;;;;12.75;12.50;;;;;19.24;41.01;101520.22;4982311;28;45235;-55
2023/05/31 07:49:30;;;;;;;;;13.50;10.25;;;;;19.28;40.99;101517.41;4982637;28;45501;-56
2023/05/31 07:51:56;;;;;;;;;14.25;12.00;;;;;19.35;40.83;101517.16;4982796;28;45357;-60
2023/05/31 07:54:21;;;;;;;;;10.50;10.50;;;;;19.38;40.58;101520.56;4982603;28;45395;-57
2023/05/31 07:56:47;;;;;;;;;11.00;10.25;;;;;19.40;40.74;101516.03;4982246;28;46583;-57
2023/05/31 07:59:12;;;;;;;;;12.00;12.00;;;;;19.48;40.85;101515.72;4982475;28;45401;-57
2023/05/31 08:01:39;;;;;;;;;11.50;10.25;;;;;19.49;40.74;101507.66;4981965;28;45876;-55
2023/05/31 08:04:06;;;;;;;;;10.00;10.00;;;;;19.56;41.05;101508.31;4981692;28;45377;-54
2023/05/31 08:06:32;;;;;;;;;14.25;11.75;;;;;19.53;40.93;101497.75;4970094;28;45414;-53
2023/05/31 08:08:58;;;;;;;;;11.50;9.00;;;;;19.65;40.80;101494.59;4962453;28;45220;-53
2023/05/31 08:11:25;;;;;;;;;12.00;10.75;;;;;19.70;40.94;101498.88;4966449;28;45180;-56
2023/05/31 08:13:51;;;;;;;;;11.00;9.25;;;;;19.75;40.73;101500.44;4966934;28;45431;-55
2023/05/31 08:16:16;;;;;;;;;11.50;10.25;;;;;19.80;40.70;101502.94;4969577;28;46920;-54
2023/05/31 08:18:41;;;;;;;;;9.75;9.00;;;;;19.85;40.89;101503.63;4981699;28;45299;-55
2023/05/31 08:21:07;;;;;;;;;10.50;9.00;;;;;19.89;40.72;101501.72;4982342;28;45357;-55
2023/05/31 08:23:32;;;;;;;;;14.25;10.25;;;;;19.95;40.82;101504.13;4981113;28;45560;-57
2023/05/31 08:25:57;;;;;;;;;10.75;10.50;;;;;19.98;41.22;101504.00;4981825;28;46106;-57
2023/05/31 08:28:23;;;;;;;;;8.75;8.75;;;;;20.04;40.89;101498.41;4981647;28;45263;-56
2023/05/31 08:30:48;;;;;;;;;11.50;10.25;;;;;20.05;40.66;101494.81;4982148;28;45298;-55
2023/05/31 08:33:13;;;;;;;;;12.00;10.25;;;;;20.11;40.64;101494.56;4981273;28;45596;-54
2023/05/31 08:35:40;;;;;;;;;12.50;11.00;;;;;20.15;40.58;101497.97;4982068;28;46551;-55
2023/05/31 08:38:06;;;;;;;;;9.25;8.75;;;;;20.21;41.00;101492.34;4966188;28;45412;-57
2023/05/31 08:40:31;;;;;;;;;12.00;9.50;;;;;20.25;41.03;101488.63;4981683;28;45230;-57
2023/05/31 08:43:02;;;;;;;;;12.25;10.25;;;;;20.30;40.64;101488.41;4979422;28;45531;-54
2023/05/31 08:45:28;;;;;;;;;10.00;10.00;;;;;20.28;40.40;101469.78;4962248;28;46204;-57
2023/05/31 08:48:17;;;;;;;;;12.50;9.50;;;;;20.42;40.55;101490.53;4961456;28;45378;-57
2023/05/31 08:50:42;;;;;;;;;11.25;8.50;;;;;20.48;40.89;101485.88;4962261;28;45478;-56
2023/05/31 08:53:08;;;;;;;;;11.00;9.75;;;;;20.53;41.08;101482.06;4968063;28;45292;-57
2023/05/31 08:55:36;;;;;;;;;11.00;9.50;;;;;20.57;40.63;101472.97;4981255;28;45437;-59
2023/05/31 08:58:02;;;;;;;;;9.00;8.25;;;;;20.63;40.40;101478.03;4965424;28;45373;-58
2023/05/31 09:00:28;;;;;;;;;10.75;7.75;;;;;20.67;40.80;101484.13;4956641;28;45460;-54
2023/05/31 09:02:54;;;;;;;;;9.00;9.00;;;;;20.69;40.61;101473.38;4969424;28;45401;-56
2023/05/31 09:05:19;;;;;;;;;6.75;6.50;;;;;20.72;40.40;101457.25;4981239;28;46154;-56
2023/05/31 09:07:46;;;;;;;;;9.00;8.00;;;;;20.82;40.26;101469.25;4981196;28;45445;-56
2023/05/31 09:10:14;;;;;;;;;8.00;8.00;;;;;20.91;40.19;101467.94;4985756;28;45375;-55
2023/05/31 09:12:40;;;;;;;;;11.25;11.00;;;;;20.96;40.62;101473.94;4982426;28;45481;-55
2023/05/31 09:15:06;;;;;;;;;9.50;8.50;;;;;21.02;40.29;101464.75;4981150;28;45400;-53
2023/05/31 09:17:31;;;;;;;;;12.25;9.75;;;;;21.09;40.02;101463.53;4979538;28;45468;-56
2023/05/31 09:19:56;;;;;;;;;10.75;7.75;;;;;21.15;40.07;101459.72;4981442;28;45670;-56
2023/05/31 09:22:22;;;;;;;;;12.75;8.00;;;;;21.21;39.92;101454.09;4981240;28;45343;-56
2023/05/31 09:25:06;;;;;;;;;11.00;8.00;;;;;21.28;39.84;101455.50;4981012;28;46370;-57
2023/05/31 09:27:39;;;;;;;;;11.00;8.75;;;;;21.34;40.06;101452.53;4980941;28;45325;-56
2023/05/31 09:30:08;;;;;;;;;9.00;9.00;;;;;21.41;40.05;101440.63;4981027;28;45270;-56
2023/05/31 09:32:35;;;;;;;;;8.75;7.00;;;;;21.46;40.32;101442.19;4980735;28;45426;-56
2023/05/31 09:35:13;;;;;;;;;8.75;6.75;;;;;21.55;40.40;101444.44;4980655;28;46197;-56
2023/05/31 09:37:44;;;;;;;;;6.75;6.75;;;;;21.61;39.61;101443.28;4993654;28;45652;-56
2023/05/31 09:40:13;;;;;;;;;7.75;7.75;;;;;21.69;40.17;101444.63;4980855;28;45476;-56
2023/05/31 09:42:38;;;;;;;;;10.00;8.50;;;;;21.73;40.02;101435.50;4979571;28;45632;-56
2023/05/31 09:45:04;;;;;;;;;11.00;10.25;;;;;21.82;39.95;101439.53;4980451;28;45409;-56
2023/05/31 09:47:29;;;;;;;;;9.00;7.00;;;;;21.87;39.57;101431.28;4980340;28;45406;-56
2023/05/31 09:49:55;;;;;;;;;8.50;6.50;;;;;21.97;39.79;101435.22;4980721;28;45470;-57
2023/05/31 09:52:30;;;;;;;;;9.00;7.25;;;;;22.05;39.41;101422.31;4980549;28;45422;-56
2023/05/31 09:54:57;;;;;;;;;8.00;8.00;;;;;22.13;39.83;101429.94;4960966;28;45373;-57
2023/05/31 09:57:39;;;;;;;;;8.50;7.75;;;;;22.23;39.48;101423.16;4971520;28;45342;-57
2023/05/31 10:00:12;;;;;;;;;10.50;9.50;;;;;22.33;39.62;101430.72;4980797;28;45317;-56
2023/05/31 10:02:37;;;;;;;;;9.00;9.00;;;;;22.44;39.57;101430.16;4968438;28;45707;-56
2023/05/31 10:05:05;;;;;;;;;6.25;6.25;;;;;22.55;39.33;101433.13;4978245;28;45419;-56
2023/05/31 10:07:31;;;;;;;;;9.00;8.25;;;;;22.66;39.38;101425.38;4980134;28;45258;-53
2023/05/31 10:09:56;;;;;;;;;11.50;9.00;;;;;22.81;39.36;101425.50;4981969;28;45384;-54
2023/05/31 10:12:25;;;;;;;;;8.25;7.75;;;;;22.95;39.14;101414.03;4983663;28;54063;-56
2023/05/31 10:14:58;;;;;;;;;8.50;7.50;;;;;23.11;39.50;101403.31;4980478;28;46217;-55
2023/05/31 10:17:28;;;;;;;;;10.50;8.00;;;;;23.33;39.22;101422.59;4979738;28;45402;-56
2023/05/31 10:20:00;;;;;;;;;9.50;9.50;;;;;23.55;39.36;101418.69;4979176;28;45267;-54
2023/05/31 10:22:29;;;;;;;;;9.25;8.00;;;;;23.77;39.47;101417.41;4980159;28;45258;-57
2023/05/31 10:25:02;;;;;;;;;8.50;8.25;;;;;23.99;39.28;101411.66;4980086;28;46187;-55
2023/05/31 10:27:31;;;;;;;;;11.25;11.25;;;;;24.23;39.34;101403.94;4973185;28;45360;-58
2023/05/31 10:30:04;;;;;;;;;8.00;7.00;;;;;24.54;39.44;101404.72;4980150;28;45327;-55
2023/05/31 10:32:34;;;;;;;;;9.00;9.00;;;;;24.91;39.91;101397.00;4979897;28;45374;-58
2023/05/31 10:35:00;;;;;;;;;9.25;8.25;;;;;25.37;39.53;101398.56;4979682;28;45358;-58
2023/05/31 10:37:26;;;;;;;;;7.25;7.00;;;;;25.86;40.21;101396.19;4968245;28;45430;-55
2023/05/31 10:40:00;;;;;;;;;10.75;9.00;;;;;26.43;40.07;101398.50;4960473;28;45389;-56
2023/05/31 10:42:38;;;;;;;;;8.00;7.25;;;;;27.07;40.04;101396.69;4971579;28;45405;-56
2023/05/31 10:45:15;;;;;;;;;9.00;9.00;;;;;27.70;39.76;101394.66;4995026;28;45570;-51
2023/05/31 10:47:51;;;;;;;;;11.75;10.25;;;;;28.33;40.12;101396.16;4970257;28;45533;-57
2023/05/31 10:50:20;;;;;;;;;10.75;9.25;;;;;29.02;40.19;101395.16;4967279;28;45382;-52
2023/05/31 10:53:07;;;;;;;;;8.00;8.00;;;;;29.67;40.08;101393.34;4966756;28;45547;-57
2023/05/31 10:55:43;;;;;;;;;8.75;8.00;;;;;30.40;40.28;101397.06;4966649;28;45397;-50
2023/05/31 10:58:25;;;;;;;;;9.00;9.00;;;;;31.08;39.19;101386.47;4983967;28;45421;-56
2023/05/31 11:00:55;;;;;;;;;10.50;9.50;;;;;31.72;38.74;101389.66;4985979;28;45427;-54
2023/05/31 11:03:23;;;;;;;;;6.00;6.00;;;;;32.30;39.60;101382.34;4968736;28;46358;-55
2023/05/31 11:05:59;;;;;;;;;8.50;7.75;;;;;32.92;38.81;101386.38;4981663;28;47279;-57
2023/05/31 11:08:25;;;;;;;;;10.00;8.25;;;;;33.41;38.71;101381.47;4986273;28;45342;-52
2023/05/31 11:10:51;;;;;;;;;9.00;9.00;;;;;33.96;38.75;101385.84;4992508;28;45402;-52